Time;durP1;ratioP1;P1;durP2;ratioP2;P2;SDS_P1;SDS_P2;PMS_P1;PMS_P2;Temp;Humidity;BMP_temperature;BMP_pressure;BME280_temperature;BME280_humidity;BME280_pressure;Samples;Min_cycle;Max_cycle;Signal;HPM_P1;HPM_P2
2022/11/22 00:04:40;;;;;;;40.80;18.40;;;;;;;-0.61;98.73;99593.30;3578119;81;99004;-80
2022/11/22 00:09:41;;;;;;;48.23;21.33;;;;;;;-0.62;99.00;99599.24;3610210;81;32781;-79
2022/11/22 00:14:42;;;;;;;45.28;22.35;;;;;;;-0.61;99.16;99591.37;3600463;81;98539;-79
2022/11/22 00:19:43;;;;;;;48.87;22.80;;;;;;;-0.54;99.12;99599.78;3616402;81;32559;-80
2022/11/22 00:24:45;;;;;;;47.97;22.67;;;;;;;-0.53;99.13;99601.91;3610531;80;98486;-80
2022/11/22 00:29:45;;;;;;;49.20;23.60;;;;;;;-0.56;99.03;99594.47;3618345;81;28099;-80
2022/11/22 00:34:46;;;;;;;57.17;25.67;;;;;;;-0.54;99.22;99583.57;3606164;81;98906;-80
2022/11/22 00:39:47;;;;;;;55.17;24.47;;;;;;;-0.50;99.16;99576.95;3622770;80;25864;-80
2022/11/22 00:44:48;;;;;;;67.00;29.60;;;;;;;-0.51;99.12;99562.64;3595566;80;98519;-80
2022/11/22 00:49:49;;;;;;;56.53;27.67;;;;;;;-0.47;99.22;99564.13;3611135;81;25834;-80
2022/11/22 00:54:49;;;;;;;57.53;25.03;;;;;;;-0.48;99.13;99557.95;3594765;81;98945;-80
2022/11/22 00:59:50;;;;;;;61.97;26.20;;;;;;;-0.55;99.19;99546.06;3611828;81;26469;-80
2022/11/22 01:04:51;;;;;;;58.90;27.27;;;;;;;-0.56;99.15;99540.42;3598602;80;98810;-81
2022/11/22 01:09:51;;;;;;;63.53;28.43;;;;;;;-0.58;99.19;99537.23;3573118;82;33966;-80
2022/11/22 01:14:52;;;;;;;58.30;25.33;;;;;;;-0.59;99.30;99527.55;3570401;80;98794;-81
2022/11/22 01:19:53;;;;;;;63.27;27.77;;;;;;;-0.56;99.35;99534.45;3558164;80;32932;-81
2022/11/22 01:24:54;;;;;;;63.50;27.20;;;;;;;-0.55;99.42;99531.97;3562948;80;99251;-81
2022/11/22 01:29:55;;;;;;;61.80;26.83;;;;;;;-0.65;99.29;99524.26;3598134;80;32765;-81
2022/11/22 01:34:56;;;;;;;71.00;29.33;;;;;;;-0.73;99.29;99521.59;3565167;81;98738;-80
2022/11/22 01:39:56;;;;;;;67.33;28.60;;;;;;;-0.74;99.55;99517.28;3540513;81;30088;-81
2022/11/22 01:45:19;;;;;;;65.90;26.90;;;;;;;-0.78;99.68;99519.07;3533619;81;98824;-80
2022/11/22 01:50:20;;;;;;;68.70;30.13;;;;;;;-0.75;99.96;99521.91;3549737;82;25941;-80
2022/11/22 01:55:22;;;;;;;78.20;32.63;;;;;;;-0.68;99.99;99539.75;3525873;81;98732;-81
2022/11/22 02:00:23;;;;;;;71.77;29.63;;;;;;;-0.63;100.00;99544.17;3542324;81;31634;-81
2022/11/22 02:05:28;;;;;;;75.70;29.23;;;;;;;-0.66;99.96;99530.75;3537828;81;99207;-80
2022/11/22 02:10:34;;;;;;;51.00;21.52;;;;;;;-0.63;99.97;99514.45;3561003;81;26109;-81
2022/11/22 02:15:35;;;;;;;48.25;21.25;;;;;;;-0.71;99.65;99500.44;3542807;81;98879;-81
2022/11/22 02:20:37;;;;;;;49.23;22.00;;;;;;;-0.72;99.93;99492.88;3542218;81;31594;-79
2022/11/22 02:25:59;;;;;;;49.20;19.98;;;;;;;-0.74;99.71;99507.83;3539337;81;99049;-80
2022/11/22 02:31:00;;;;;;;53.37;21.47;;;;;;;-0.80;99.66;99513.98;3544645;81;29215;-80
2022/11/22 02:36:02;;;;;;;49.23;22.20;;;;;;;-0.83;99.83;99516.55;3561944;80;99023;-80
2022/11/22 02:41:09;;;;;;;70.87;26.80;;;;;;;-0.79;100.00;99519.62;3592740;80;31644;-80
2022/11/22 02:46:22;;;;;;;52.53;22.87;;;;;;;-0.72;100.00;99525.30;3617838;80;98931;-80
2022/11/22 02:51:23;;;;;;;49.47;21.23;;;;;;;-0.73;99.97;99523.72;3606269;80;25849;-80
2022/11/22 02:56:24;;;;;;;52.43;22.20;;;;;;;-0.76;100.00;99508.18;3630446;80;98914;-81
2022/11/22 03:01:25;;;;;;;53.33;22.40;;;;;;;-0.75;99.85;99504.36;3628986;80;31510;-80
2022/11/22 03:06:26;;;;;;;50.53;21.43;;;;;;;-0.78;99.58;99498.81;3628433;80;99145;-80
2022/11/22 03:11:26;;;;;;;52.00;20.83;;;;;;;-0.77;99.75;99490.36;3637824;79;31607;-80
2022/11/22 03:16:29;;;;;;;54.83;23.40;;;;;;;-0.73;99.84;99493.23;3625320;80;98338;-80
2022/11/22 03:21:30;;;;;;;58.50;23.57;;;;;;;-0.70;99.86;99499.31;3623024;80;31607;-80
2022/11/22 03:26:31;;;;;;;61.00;26.77;;;;;;;-0.69;99.66;99503.59;3621565;80;98583;-80
2022/11/22 03:31:32;;;;;;;57.50;24.57;;;;;;;-0.72;99.37;99494.23;3635324;80;30968;-80
2022/11/22 03:36:33;;;;;;;70.30;26.97;;;;;;;-0.74;99.40;99484.88;3621520;80;98583;-80
2022/11/22 03:41:33;;;;;;;63.77;28.40;;;;;;;-0.77;99.20;99476.09;3639504;80;32211;-80
2022/11/22 03:46:34;;;;;;;63.45;26.90;;;;;;;-0.80;99.21;99468.62;3624673;80;98764;-80
2022/11/22 03:51:35;;;;;;;61.53;24.40;;;;;;;-0.77;99.46;99480.91;3630786;80;34907;-80
2022/11/22 03:56:36;;;;;;;67.07;28.80;;;;;;;-0.71;99.43;99479.61;3619266;80;98515;-79
2022/11/22 04:01:36;;;;;;;73.87;32.33;;;;;;;-0.67;99.56;99481.90;3634241;79;25888;-80
2022/11/22 04:06:38;;;;;;;61.63;26.43;;;;;;;-0.67;99.35;99479.20;3634369;79;98845;-79
2022/11/22 04:11:39;;;;;;;59.40;25.47;;;;;;;-0.70;99.18;99477.71;3630759;80;34850;-80
2022/11/22 04:16:40;;;;;;;57.83;23.50;;;;;;;-0.70;99.47;99485.81;3621565;80;98321;-80
2022/11/22 04:21:41;;;;;;;68.77;30.37;;;;;;;-0.72;99.31;99492.11;3637520;79;35577;-80
2022/11/22 04:26:42;;;;;;;87.47;32.70;;;;;;;-0.70;99.14;99481.21;3635147;80;98453;-80
2022/11/22 04:37:03;;;;;;;61.53;24.93;;;;;;;-0.71;98.86;99489.06;3618520;79;98687;-80
2022/11/22 04:47:11;;;;;;;56.23;21.33;;;;;;;-0.70;98.86;99486.62;3578219;79;98531;-80
2022/11/22 04:57:31;;;;;;;51.43;21.50;;;;;;;-0.71;98.88;99491.77;3625284;79;98536;-81
2022/11/22 05:02:32;;;;;;;55.20;23.05;;;;;;;-0.73;98.83;99502.11;3631718;79;35374;-81
2022/11/22 05:07:33;;;;;;;58.13;23.15;;;;;;;-0.73;98.68;99491.88;3618428;81;98529;-80
2022/11/22 05:12:33;;;;;;;58.70;23.30;;;;;;;-0.75;98.57;99510.30;3567711;81;34860;-81
2022/11/22 05:17:34;;;;;;;61.83;24.27;;;;;;;-0.75;98.57;99510.30;3611778;79;98496;-81
2022/11/22 05:27:55;;;;;;;69.77;25.02;;;;;;;-0.74;98.80;99505.94;3614134;80;98350;-80
2022/11/22 05:32:56;;;;;;;66.33;24.10;;;;;;;-0.77;98.68;99495.77;3602343;79;34832;-80
2022/11/22 05:37:57;;;;;;;62.77;25.17;;;;;;;-0.77;98.68;99495.77;3574991;80;98882;-80
2022/11/22 05:42:58;;;;;;;73.80;27.70;;;;;;;-0.78;98.63;99497.47;3568191;81;34823;-79
2022/11/22 05:47:59;;;;;;;70.00;28.12;;;;;;;-0.80;98.71;99502.38;3572070;81;98426;-80
2022/11/22 05:53:02;;;;;;;72.40;26.47;;;;;;;-0.78;99.06;99500.94;3582948;80;34842;-80
2022/11/22 05:58:03;;;;;;;63.90;23.10;;;;;;;-0.85;98.53;99503.36;3584486;81;98670;-80
2022/11/22 06:03:04;;;;;;;68.20;25.20;;;;;;;-0.87;98.80;99493.45;3587740;80;35431;-80
2022/11/22 06:08:04;;;;;;;64.20;26.10;;;;;;;-0.93;98.49;99485.27;3571587;81;98681;-80
2022/11/22 06:13:05;;;;;;;70.93;26.50;;;;;;;-0.99;98.60;99480.39;3579993;81;34846;-81
2022/11/22 06:18:06;;;;;;;64.23;26.50;;;;;;;-1.01;98.77;99479.36;3583176;80;98740;-80
2022/11/22 06:23:07;;;;;;;74.87;26.80;;;;;;;-1.00;98.71;99481.52;3575306;81;99197;-80
2022/11/22 06:28:08;;;;;;;77.00;28.35;;;;;;;-0.99;99.08;99487.14;3584209;81;34878;-79
2022/11/22 06:33:09;;;;;;;78.13;29.40;;;;;;;-1.01;98.78;99488.00;3578423;80;98959;-81
2022/11/22 06:38:09;;;;;;;98.00;42.77;;;;;;;-1.02;99.03;99495.33;3579191;80;33074;-78
2022/11/22 06:43:10;;;;;;;94.60;39.43;;;;;;;-1.01;99.09;99496.11;3578683;80;99004;-79
2022/11/22 06:48:11;;;;;;;95.80;38.03;;;;;;;-0.97;99.32;99514.60;3586225;81;32425;-78
2022/11/22 06:53:12;;;;;;;73.87;27.00;;;;;;;-0.95;99.11;99528.56;3571166;81;98834;-79
2022/11/22 06:58:12;;;;;;;77.33;30.43;;;;;;;-0.97;99.28;99526.75;3582229;81;32700;-78
2022/11/22 07:03:13;;;;;;;79.20;30.33;;;;;;;-0.98;99.17;99541.38;3567778;81;99105;-79
2022/11/22 07:08:14;;;;;;;84.40;34.60;;;;;;;-0.98;99.30;99535.43;3584024;81;32414;-79
2022/11/22 07:13:15;;;;;;;114.83;44.90;;;;;;;-0.96;99.48;99537.78;3574875;80;98959;-79
2022/11/22 07:18:16;;;;;;;89.37;34.87;;;;;;;-0.90;99.65;99553.50;3579223;81;26331;-79
2022/11/22 07:23:16;;;;;;;103.40;36.53;;;;;;;-0.86;99.46;99546.89;3575036;81;98766;-80
2022/11/22 07:28:17;;;;;;;89.40;35.73;;;;;;;-0.91;99.24;99543.81;3579492;81;26473;-80
2022/11/22 07:33:18;;;;;;;117.40;42.23;;;;;;;-0.94;99.40;99543.10;3556775;82;98784;-80
2022/11/22 07:38:19;;;;;;;124.72;42.23;;;;;;;-0.92;99.44;99534.14;3586484;80;25991;-78
2022/11/22 07:43:20;;;;;;;93.50;33.30;;;;;;;-0.89;99.63;99539.45;3594034;80;98857;-79
2022/11/22 07:48:20;;;;;;;88.37;36.23;;;;;;;-0.91;99.52;99542.47;3615882;80;26518;-80
2022/11/22 07:53:21;;;;;;;102.03;34.87;;;;;;;-0.86;99.69;99546.34;3618167;80;109020;-79
2022/11/22 07:58:22;;;;;;;101.00;39.17;;;;;;;-0.83;99.73;99546.26;3621807;80;32937;-80
2022/11/22 08:03:23;;;;;;;90.73;36.97;;;;;;;-0.80;99.89;99534.25;3614711;80;98777;-79
2022/11/22 08:08:24;;;;;;;97.23;36.93;;;;;;;-0.76;99.84;99527.09;3625127;80;34065;-79
2022/11/22 08:13:25;;;;;;;88.27;36.37;;;;;;;-0.75;99.81;99540.82;3610170;80;98789;-79
2022/11/22 08:18:26;;;;;;;98.77;37.47;;;;;;;-0.74;99.90;99532.95;3621787;80;32861;-79
2022/11/22 08:23:27;;;;;;;97.70;35.05;;;;;;;-0.73;99.80;99543.98;3621229;80;98857;-79
2022/11/22 08:28:28;;;;;;;82.53;34.10;;;;;;;-0.70;99.89;99550.65;3618481;80;33131;-81
2022/11/22 08:33:29;;;;;;;88.20;35.52;;;;;;;-0.65;100.00;99536.96;3603877;80;98944;-80
2022/11/22 08:38:29;;;;;;;118.60;52.07;;;;;;;-0.66;99.90;99532.69;3610391;80;29222;-80
2022/11/22 08:43:31;;;;;;;90.03;37.58;;;;;;;-0.67;99.86;99550.02;3611831;80;98791;-80
2022/11/22 08:48:34;;;;;;;89.17;35.63;;;;;;;-0.68;100.00;99561.91;3619208;81;31630;-80
2022/11/22 08:53:38;;;;;;;73.42;30.10;;;;;;;-0.68;100.00;99561.37;3613328;80;98789;-80
2022/11/22 08:58:39;;;;;;;76.28;31.93;;;;;;;-0.66;100.00;99555.64;3621778;80;30148;-79
2022/11/22 09:03:41;;;;;;;74.42;29.67;;;;;;;-0.62;100.00;99557.94;3608318;80;99062;-79
2022/11/22 09:08:42;;;;;;;86.67;30.93;;;;;;;-0.58;100.00;99554.25;3633826;79;27421;-79
2022/11/22 09:13:44;;;;;;;83.50;28.23;;;;;;;-0.60;100.00;99559.75;3604896;80;98706;-79
2022/11/22 09:18:47;;;;;;;72.43;28.13;;;;;;;-0.59;100.00;99559.43;3612856;81;32245;-79
2022/11/22 09:23:49;;;;;;;64.67;25.65;;;;;;;-0.58;100.00;99556.96;3612533;80;98657;-80
2022/11/22 09:28:52;;;;;;;66.77;24.67;;;;;;;-0.63;100.00;99540.92;3617294;80;29131;-79
2022/11/22 09:33:52;;;;;;;65.20;26.80;;;;;;;-0.59;100.00;99528.91;3613792;80;99221;-79
2022/11/22 09:38:57;;;;;;;69.10;26.63;;;;;;;-0.59;100.00;99516.75;3616530;80;31631;-79
2022/11/22 09:44:18;;;;;;;66.20;24.83;;;;;;;-0.56;100.00;99510.70;3604843;79;98932;-79
2022/11/22 09:49:29;;;;;;;62.30;25.45;;;;;;;-0.54;100.00;99513.86;3615986;80;31725;-78
2022/11/22 09:54:53;;;;;;;65.97;26.93;;;;;;;-0.54;100.00;99496.30;3608215;80;99174;-79
2022/11/22 10:00:23;;;;;;;61.67;29.60;;;;;;;-0.48;100.00;99486.89;3617458;79;29176;-79
2022/11/22 10:05:35;;;;;;;66.17;25.97;;;;;;;-0.42;100.00;99488.50;3607908;80;98942;-79
2022/11/22 10:10:41;;;;;;;90.97;39.05;;;;;;;-0.37;100.00;99494.84;3617912;79;33112;-80
2022/11/22 10:16:18;;;;;;;85.37;33.97;;;;;;;-0.29;100.00;99486.68;3620883;79;98820;-80
2022/11/22 10:21:19;;;;;;;;;;;;;;;-0.27;100.00;99479.83;3564413;81;26537;-80
2022/11/22 10:26:32;;;;;;;63.17;27.50;;;;;;;-0.22;100.00;99477.48;3605375;79;84696;-80
2022/11/22 10:31:50;;;;;;;66.53;26.60;;;;;;;-0.20;100.00;99477.38;3611092;79;32235;-80
2022/11/22 10:37:05;;;;;;;61.27;24.77;;;;;;;-0.15;100.00;99483.17;3608747;79;99129;-80
2022/11/22 10:42:11;;;;;;;69.77;28.17;;;;;;;-0.09;100.00;99474.52;3612102;79;31121;-79
2022/11/22 10:47:47;;;;;;;62.10;24.95;;;;;;;-0.04;100.00;99477.03;3613764;79;99016;-80
2022/11/22 10:53:11;;;;;;;73.67;30.07;;;;;;;0.02;100.00;99468.94;3613579;79;30218;-80
2022/11/22 10:59:01;;;;;;;69.03;28.80;;;;;;;0.11;100.00;99463.49;3533224;81;26063;-79
2022/11/22 11:04:03;;;;;;;70.33;24.97;;;;;;;0.14;100.00;99460.11;3609868;79;98875;-79
2022/11/22 11:09:24;;;;;;;68.67;27.63;;;;;;;0.20;100.00;99473.66;3631527;79;27290;-80
2022/11/22 11:14:30;;;;;;;72.60;26.53;;;;;;;0.25;100.00;99463.44;3618264;79;98640;-79
2022/11/22 11:19:40;;;;;;;56.28;21.45;;;;;;;0.30;100.00;99468.65;3622724;80;26343;-79
2022/11/22 11:24:41;;;;;;;68.37;27.22;;;;;;;0.33;100.00;99459.07;3612308;79;98642;-79
2022/11/22 11:30:01;;;;;;;59.97;23.87;;;;;;;0.38;100.00;99464.25;3597721;81;32459;-80
2022/11/22 11:35:07;;;;;;;66.42;24.35;;;;;;;0.43;100.00;99457.28;3619314;79;98896;-80
2022/11/22 11:40:30;;;;;;;66.73;26.40;;;;;;;0.48;100.00;99446.24;3604377;80;26361;-80
2022/11/22 11:45:31;;;;;;;69.07;27.83;;;;;;;0.52;100.00;99461.50;3610511;80;98545;-81
2022/11/22 11:50:32;;;;;;;68.00;26.93;;;;;;;0.59;100.00;99452.81;3609040;80;32105;-80
2022/11/22 11:55:35;;;;;;;69.60;27.20;;;;;;;0.64;100.00;99448.55;3603218;80;98849;-80
2022/11/22 12:00:39;;;;;;;77.57;29.67;;;;;;;0.66;100.00;99447.09;3605657;80;29814;-81
2022/11/22 12:05:39;;;;;;;74.22;28.87;;;;;;;0.73;100.00;99449.25;3592714;80;98677;-81
2022/11/22 12:11:04;;;;;;;97.03;36.87;;;;;;;0.74;100.00;99462.46;3610694;81;31637;-81
2022/11/22 12:16:27;;;;;;;81.20;31.60;;;;;;;0.79;100.00;99458.73;3559659;80;98520;-81
2022/11/22 12:22:03;;;;;;;90.43;40.10;;;;;;;0.82;100.00;99454.79;3603031;81;26366;-81
2022/11/22 12:27:06;;;;;;;57.70;24.75;;;;;;;0.88;100.00;99460.21;3600934;81;98580;-80
2022/11/22 12:32:26;;;;;;;68.12;29.82;;;;;;;0.91;100.00;99460.11;3601212;81;33305;-81
2022/11/22 12:37:51;;;;;;;84.40;32.10;;;;;;;0.93;100.00;99457.29;3605976;81;98442;-81
2022/11/22 12:42:57;;;;;;;75.35;28.50;;;;;;;0.94;100.00;99453.45;3602248;81;29729;-81
2022/11/22 12:48:06;;;;;;;76.62;28.47;;;;;;;0.97;100.00;99453.34;3594419;81;98213;-81
2022/11/22 12:53:29;;;;;;;65.83;25.62;;;;;;;0.96;100.00;99452.56;3593493;80;98428;-81
2022/11/22 12:59:12;;;;;;;78.07;29.07;;;;;;;0.98;100.00;99452.20;3643829;79;31272;-81
2022/11/22 13:04:28;;;;;;;68.93;24.97;;;;;;;1.02;100.00;99461.25;3629116;79;98523;-81
2022/11/22 13:09:33;;;;;;;76.57;26.43;;;;;;;1.06;100.00;99457.55;3635064;80;26560;-81
2022/11/22 13:14:54;;;;;;;79.87;29.00;;;;;;;1.06;100.00;99457.55;3642530;80;100133;-82
2022/11/22 13:20:15;;;;;;;72.60;28.90;;;;;;;1.09;100.00;99467.70;3634931;80;29635;-81
2022/11/22 13:25:41;;;;;;;82.22;29.27;;;;;;;1.11;100.00;99465.42;3622076;80;98536;-83
2022/11/22 13:31:07;;;;;;;81.17;32.37;;;;;;;1.12;100.00;99462.16;3643363;79;26632;-82
2022/11/22 13:36:32;;;;;;;92.50;35.50;;;;;;;1.12;100.00;99461.61;3627791;80;98450;-82
2022/11/22 13:41:38;;;;;;;99.33;39.60;;;;;;;1.16;100.00;99463.08;3629806;79;26612;-83
2022/11/22 13:47:13;;;;;;;90.55;37.93;;;;;;;1.15;100.00;99467.70;3630645;79;98313;-82
2022/11/22 13:52:19;;;;;;;85.90;32.83;;;;;;;1.17;100.00;99460.59;3624170;79;28211;-82
2022/11/22 13:57:35;;;;;;;77.47;33.60;;;;;;;1.20;100.00;99450.45;3626155;79;98629;-81
2022/11/22 14:02:39;;;;;;;98.85;38.75;;;;;;;1.19;100.00;99442.87;3633615;79;25844;-82
2022/11/22 14:07:41;;;;;;;94.60;38.38;;;;;;;1.20;100.00;99444.44;3618491;79;98665;-83
2022/11/22 14:13:12;;;;;;;88.40;35.43;;;;;;;1.23;100.00;99435.65;3634429;79;33650;-82
2022/11/22 14:18:24;;;;;;;85.28;33.83;;;;;;;1.27;100.00;99443.89;3632393;79;31195;-81
2022/11/22 14:23:57;;;;;;;92.43;37.17;;;;;;;1.26;100.00;99442.31;3625757;79;98636;-82
2022/11/22 14:29:39;;;;;;;83.33;33.30;;;;;;;1.28;100.00;99457.11;3620399;79;32721;-83
2022/11/22 14:35:08;;;;;;;78.75;34.78;;;;;;;1.28;100.00;99454.39;3613532;81;98605;-84
2022/11/22 14:40:17;;;;;;;94.63;36.27;;;;;;;1.29;100.00;99449.75;3603150;80;26500;-83
2022/11/22 14:45:39;;;;;;;92.40;36.87;;;;;;;1.30;100.00;99443.99;3587112;80;98515;-83
2022/11/22 14:50:44;;;;;;;99.22;36.70;;;;;;;1.27;100.00;99446.59;3608561;80;31119;-83
2022/11/22 14:55:48;;;;;;;99.20;40.17;;;;;;;1.29;100.00;99445.68;3574282;80;98786;-82
2022/11/22 15:01:23;;;;;;;90.40;37.30;;;;;;;1.30;100.00;99449.41;3565783;80;26589;-83
2022/11/22 15:06:57;;;;;;;94.55;39.88;;;;;;;1.30;100.00;99437.22;3591974;80;98809;-82
2022/11/22 15:12:15;;;;;;;91.73;36.57;;;;;;;1.31;100.00;99438.02;3590576;80;31606;-82
2022/11/22 15:17:20;;;;;;;89.37;37.80;;;;;;;1.29;100.00;99435.64;3585337;80;98542;-84
2022/11/22 15:22:28;;;;;;;84.70;35.50;;;;;;;1.27;100.00;99436.53;3595837;80;30620;-82
2022/11/22 15:27:45;;;;;;;91.78;38.58;;;;;;;1.27;100.00;99435.17;3586257;80;98629;-82
2022/11/22 15:32:52;;;;;;;86.95;36.98;;;;;;;1.27;100.00;99434.40;3597915;81;32099;-83
2022/11/22 15:37:57;;;;;;;76.35;33.25;;;;;;;1.27;100.00;99436.53;3591330;80;98310;-84
2022/11/22 15:43:00;;;;;;;90.90;36.93;;;;;;;1.28;100.00;99436.78;3646733;80;35106;-84
2022/11/22 15:48:06;;;;;;;89.35;37.15;;;;;;;1.28;100.00;99440.84;3638670;80;98156;-83
2022/11/22 15:53:22;;;;;;;92.17;39.85;;;;;;;1.29;100.00;99444.33;3632463;80;98878;-83
2022/11/22 15:58:26;;;;;;;87.57;35.35;;;;;;;1.29;100.00;99452.45;3562995;81;25867;-85
2022/11/22 16:03:33;;;;;;;109.52;50.30;;;;;;;1.31;100.00;99452.34;3572151;80;99086;-84
2022/11/22 16:08:34;;;;;;;88.65;38.90;;;;;;;1.32;100.00;99455.27;3636064;79;25843;-83
2022/11/22 16:13:35;;;;;;;95.57;41.67;;;;;;;1.32;100.00;99459.92;3632927;80;98861;-84
2022/11/22 16:18:41;;;;;;;84.13;36.20;;;;;;;1.32;100.00;99459.92;3645424;79;32321;-83
2022/11/22 16:23:44;;;;;;;88.65;39.40;;;;;;;1.33;100.00;99461.50;3643933;80;98998;-81
2022/11/22 16:28:48;;;;;;;85.33;36.20;;;;;;;1.36;100.00;99467.58;3633504;79;28269;-84
2022/11/22 16:33:50;;;;;;;84.87;39.20;;;;;;;1.36;100.00;99471.64;3644200;79;98471;-85
2022/11/22 16:38:51;;;;;;;87.62;36.88;;;;;;;1.37;100.00;99469.95;3645835;80;32086;-83
2022/11/22 16:43:56;;;;;;;90.63;41.77;;;;;;;1.40;100.00;99469.84;3630810;80;98988;-83
2022/11/22 16:48:56;;;;;;;91.90;42.90;;;;;;;1.43;100.00;99466.47;3645428;80;31358;-83
2022/11/22 16:54:03;;;;;;;93.17;36.53;;;;;;;1.44;100.00;99467.48;3628367;80;98851;-83
2022/11/22 16:59:03;;;;;;;93.72;42.55;;;;;;;1.46;100.00;99472.55;3645446;80;25793;-84
2022/11/22 17:04:04;;;;;;;90.60;38.60;;;;;;;1.45;100.00;99471.78;3628430;80;98719;-84
2022/11/22 17:09:05;;;;;;;96.43;43.57;;;;;;;1.48;100.00;99479.80;3645046;80;31628;-84
2022/11/22 17:14:10;;;;;;;92.50;41.77;;;;;;;1.49;100.00;99482.73;3633827;80;98771;-84
2022/11/22 17:19:11;;;;;;;96.27;41.30;;;;;;;1.52;100.00;99485.55;3644159;80;31084;-84
2022/11/22 17:24:19;;;;;;;92.80;41.00;;;;;;;1.52;100.00;99482.83;3637082;80;98493;-83
2022/11/22 17:29:20;;;;;;;85.77;38.90;;;;;;;1.53;100.00;99483.64;3640358;79;28149;-85
2022/11/22 17:34:21;;;;;;;93.83;40.13;;;;;;;1.53;100.00;99477.63;3620616;80;99014;-83
2022/11/22 17:39:22;;;;;;;113.80;50.33;;;;;;;1.55;100.00;99478.66;3634730;80;31626;-83
2022/11/22 17:44:22;;;;;;;97.17;42.17;;;;;;;1.55;100.00;99476.75;3625224;79;98667;-84
2022/11/22 17:49:23;;;;;;;96.10;42.00;;;;;;;1.56;100.00;99474.25;3619905;80;31653;-85
2022/11/22 17:54:24;;;;;;;102.20;44.40;;;;;;;1.57;100.00;99473.67;3611784;80;98754;-84
2022/11/22 17:59:25;;;;;;;98.30;45.07;;;;;;;1.57;100.00;99478.54;3626160;80;31451;-84
2022/11/22 18:04:26;;;;;;;103.77;48.00;;;;;;;1.58;100.00;99482.83;3611093;79;98939;-85
2022/11/22 18:09:26;;;;;;;106.00;46.80;;;;;;;1.60;100.00;99487.92;3616070;80;35422;-85
2022/11/22 18:14:29;;;;;;;95.73;44.17;;;;;;;1.59;100.00;99479.56;3614709;80;98721;-85
2022/11/22 18:19:30;;;;;;;99.97;44.53;;;;;;;1.59;100.00;99480.92;3612021;81;31617;-85
2022/11/22 18:24:31;;;;;;;99.23;41.30;;;;;;;1.58;100.00;99488.25;3608415;79;98649;-83
2022/11/22 18:29:32;;;;;;;99.77;46.20;;;;;;;1.58;100.00;99484.19;3607586;79;34850;-83
2022/11/22 18:34:33;;;;;;;110.60;46.03;;;;;;;1.59;100.00;99488.47;3597944;80;98692;-85
2022/11/22 18:39:37;;;;;;;96.90;43.37;;;;;;;1.59;100.00;99496.61;3614012;80;34885;-84
2022/11/22 18:44:38;;;;;;;95.62;45.17;;;;;;;1.62;100.00;99501.91;3627560;79;98685;-84
2022/11/22 18:49:39;;;;;;;92.33;40.87;;;;;;;1.63;100.00;99508.36;3644704;80;34930;-83
2022/11/22 18:54:40;;;;;;;89.62;41.40;;;;;;;1.62;100.00;99495.13;3653859;79;98552;-84
2022/11/22 18:59:40;;;;;;;89.40;40.50;;;;;;;1.65;100.00;99499.31;3643683;79;34851;-83
2022/11/22 19:04:41;;;;;;;96.23;41.80;;;;;;;1.66;100.00;99504.18;3633137;79;98621;-84
2022/11/22 19:09:42;;;;;;;90.87;40.53;;;;;;;1.65;100.00;99507.45;3632096;79;34844;-83
2022/11/22 19:14:43;;;;;;;100.65;41.73;;;;;;;1.69;100.00;99507.58;3643301;79;98558;-83
2022/11/22 19:19:45;;;;;;;108.30;48.20;;;;;;;1.69;100.00;99509.70;3643181;80;34942;-84
2022/11/22 19:24:45;;;;;;;110.03;50.10;;;;;;;1.70;100.00;99503.73;3639022;79;99090;-83
2022/11/22 19:29:46;;;;;;;103.63;44.93;;;;;;;1.67;100.00;99507.11;3635455;79;32515;-83
2022/11/22 19:34:47;;;;;;;97.95;44.60;;;;;;;1.69;100.00;99523.85;3637717;80;98736;-83
2022/11/22 19:39:48;;;;;;;89.43;39.80;;;;;;;1.69;100.00;99530.63;3643361;80;33248;-83
2022/11/22 19:44:48;;;;;;;98.10;39.40;;;;;;;1.69;100.00;99530.63;3633090;80;98601;-83
2022/11/22 19:49:49;;;;;;;88.53;40.20;;;;;;;1.70;100.00;99540.34;3634848;80;33033;-84
2022/11/22 19:54:50;;;;;;;97.80;43.17;;;;;;;1.70;100.00;99543.05;3629263;80;98657;-82
2022/11/22 19:59:51;;;;;;;84.00;39.13;;;;;;;1.70;100.00;99551.97;3640630;80;32516;-83
2022/11/22 20:04:52;;;;;;;88.65;40.12;;;;;;;1.70;100.00;99547.90;3627206;80;98816;-82
2022/11/22 20:09:53;;;;;;;85.20;38.70;;;;;;;1.70;100.00;99545.77;3632966;80;25930;-83
2022/11/22 20:14:53;;;;;;;93.03;45.03;;;;;;;1.71;100.00;99548.12;3631152;80;98587;-82
2022/11/22 20:19:55;;;;;;;86.63;39.10;;;;;;;1.69;100.00;99542.84;3642127;79;26419;-83
2022/11/22 20:24:55;;;;;;;98.00;42.37;;;;;;;1.72;100.00;99541.59;3635282;80;98622;-83
2022/11/22 20:30:00;;;;;;;90.47;42.27;;;;;;;1.70;100.00;99539.77;3627840;80;25911;-83
2022/11/22 20:35:00;;;;;;;93.67;45.17;;;;;;;1.71;100.00;99538.63;3625156;80;98813;-84
2022/11/22 20:40:01;;;;;;;128.77;47.67;;;;;;;1.72;100.00;99534.00;3657146;79;26522;-83
2022/11/22 20:45:23;;;;;;;113.67;48.30;;;;;;;1.72;100.00;99534.00;3640225;80;98819;-82
2022/11/22 20:50:17;;;;;;;140.73;50.40;;;;;;;1.72;100.00;99536.16;3627225;80;31620;-82
2022/11/22 20:55:19;;;;;;;169.03;58.30;;;;;;;1.71;100.00;99527.78;3636444;79;98653;-82
2022/11/22 21:00:20;;;;;;;138.55;50.55;;;;;;;1.71;100.00;99538.63;3642108;80;31532;-81
2022/11/22 21:05:20;;;;;;;129.20;46.43;;;;;;;1.70;100.00;99524.07;3635419;80;98712;-82
2022/11/22 21:10:21;;;;;;;136.63;48.13;;;;;;;1.68;100.00;99512.20;3634946;80;26193;-81
2022/11/22 21:15:22;;;;;;;139.37;52.87;;;;;;;1.69;100.00;99511.06;3637889;79;99052;-82
2022/11/22 21:20:23;;;;;;;147.23;51.00;;;;;;;1.69;100.00;99519.78;3650410;80;26249;-81
2022/11/22 21:25:25;;;;;;;121.80;43.83;;;;;;;1.67;100.00;99513.34;3641192;80;98711;-81
2022/11/22 21:30:25;;;;;;;127.40;46.30;;;;;;;1.68;100.00;99518.17;3639612;80;25827;-81
2022/11/22 21:35:26;;;;;;;385.17;134.53;;;;;;;1.69;100.00;99528.69;3622933;80;98964;-82
2022/11/22 21:40:27;;;;;;;197.30;61.25;;;;;;;1.69;100.00;99525.98;3642087;79;25991;-82
2022/11/22 21:45:27;;;;;;;161.67;53.23;;;;;;;1.68;100.00;99526.31;3637829;79;98897;-82
2022/11/22 21:50:28;;;;;;;116.17;45.47;;;;;;;1.69;100.00;99541.48;3643741;79;33783;-82
2022/11/22 21:55:29;;;;;;;87.40;39.73;;;;;;;1.72;100.00;99548.37;3632172;79;99031;-82
2022/11/22 22:00:30;;;;;;;117.40;45.27;;;;;;;1.72;100.00;99540.23;3633922;79;32963;-81
2022/11/22 22:05:31;;;;;;;140.00;49.37;;;;;;;1.74;100.00;99539.31;3643257;79;98851;-82
2022/11/22 22:10:32;;;;;;;458.07;184.70;;;;;;;1.74;100.00;99543.38;3641287;79;32704;-83
2022/11/22 22:15:33;;;;;;;196.60;65.50;;;;;;;1.76;100.00;99543.05;3635740;80;99245;-84
2022/11/22 22:20:34;;;;;;;113.50;45.83;;;;;;;1.77;100.00;99545.98;3641746;79;32980;-84
2022/11/22 22:25:40;;;;;;;85.60;36.37;;;;;;;1.76;100.00;99545.18;3634232;80;98831;-83
2022/11/22 22:30:40;;;;;;;86.93;37.83;;;;;;;1.76;100.00;99542.47;3626877;80;25903;-83
2022/11/22 22:35:41;;;;;;;81.53;35.77;;;;;;;1.76;100.00;99538.40;3635246;80;98567;-84
2022/11/22 22:40:42;;;;;;;89.07;39.63;;;;;;;1.77;100.00;99537.84;3649310;80;31698;-83
2022/11/22 22:45:42;;;;;;;77.13;33.63;;;;;;;1.79;100.00;99543.16;3636593;80;98551;-83
2022/11/22 22:50:44;;;;;;;81.30;36.80;;;;;;;1.79;100.00;99537.73;3646785;80;31661;-83
2022/11/22 22:55:55;;;;;;;79.23;35.33;;;;;;;1.81;100.00;99557.74;3628708;80;98508;-83
2022/11/22 23:01:13;;;;;;;86.42;37.55;;;;;;;1.79;100.00;99552.65;3639645;80;32929;-83
2022/11/22 23:06:14;;;;;;;85.65;38.58;;;;;;;1.81;100.00;99568.59;3624215;79;98973;-84
2022/11/22 23:11:21;;;;;;;83.93;36.10;;;;;;;1.81;100.00;99564.52;3641654;79;31700;-84
2022/11/22 23:16:22;;;;;;;87.42;36.93;;;;;;;1.81;100.00;99571.30;3644792;80;98716;-83
2022/11/22 23:21:23;;;;;;;84.67;38.07;;;;;;;1.82;100.00;99570.17;3642099;80;32229;-84
2022/11/22 23:26:23;;;;;;;82.12;37.23;;;;;;;1.84;100.00;99571.41;3646028;80;98656;-83
2022/11/22 23:31:25;;;;;;;77.10;33.50;;;;;;;1.86;100.00;99569.72;3624983;80;32156;-84
2022/11/22 23:36:27;;;;;;;73.90;32.47;;;;;;;1.88;100.00;99565.55;3636598;80;98617;-83
2022/11/22 23:41:28;;;;;;;87.30;35.47;;;;;;;1.89;100.00;99572.55;3625886;80;31643;-84